sensor_id;sensor_type;location;lat;lon;timestamp;pressure;altitude;pressure_sealevel;temperature;humidity
69524;BME280;56723;42.694;23.286;2023-02-19T00:01:37;95375.38;;;5.41;64.89
69524;BME280;56723;42.694;23.286;2023-02-19T00:04:16;95366.16;;;5.39;65.09
69524;BME280;56723;42.694;23.286;2023-02-19T00:06:44;95383.78;;;5.43;65.27
69524;BME280;56723;42.694;23.286;2023-02-19T00:09:13;95364.03;;;5.44;65.21
69524;BME280;56723;42.694;23.286;2023-02-19T00:11:41;95364.72;;;5.46;65.44
69524;BME280;56723;42.694;23.286;2023-02-19T00:14:13;95350.38;;;5.43;65.51
69524;BME280;56723;42.694;23.286;2023-02-19T00:16:40;95359.72;;;5.44;65.52
69524;BME280;56723;42.694;23.286;2023-02-19T00:19:11;95364.03;;;5.44;65.54
69524;BME280;56723;42.694;23.286;2023-02-19T00:21:39;95345.34;;;5.42;65.74
69524;BME280;56723;42.694;23.286;2023-02-19T00:24:06;95363.09;;;5.45;65.73
69524;BME280;56723;42.694;23.286;2023-02-19T00:26:33;95355.63;;;5.42;65.71
69524;BME280;56723;42.694;23.286;2023-02-19T00:29:01;95337.09;;;5.17;66.59
69524;BME280;56723;42.694;23.286;2023-02-19T00:31:32;95351.25;;;5.12;67.26
69524;BME280;56723;42.694;23.286;2023-02-19T00:34:03;95330.06;;;4.99;67.65
69524;BME280;56723;42.694;23.286;2023-02-19T00:36:32;95356.56;;;4.99;68.27
69524;BME280;56723;42.694;23.286;2023-02-19T00:39:03;95354.47;;;4.93;68.48
69524;BME280;56723;42.694;23.286;2023-02-19T00:41:30;95337.44;;;4.92;68.65
69524;BME280;56723;42.694;23.286;2023-02-19T00:44:02;95333.94;;;4.93;68.38
69524;BME280;56723;42.694;23.286;2023-02-19T00:46:32;95342.56;;;4.92;69.00
69524;BME280;56723;42.694;23.286;2023-02-19T00:49:02;95321.78;;;4.95;68.85
69524;BME280;56723;42.694;23.286;2023-02-19T00:51:31;95313.28;;;4.95;68.75
69524;BME280;56723;42.694;23.286;2023-02-19T00:53:59;95320.63;;;4.88;69.03
69524;BME280;56723;42.694;23.286;2023-02-19T00:56:26;95314.06;;;4.74;69.64
69524;BME280;56723;42.694;23.286;2023-02-19T00:58:53;95313.94;;;4.76;69.61
69524;BME280;56723;42.694;23.286;2023-02-19T01:01:20;95325.72;;;4.78;69.75
69524;BME280;56723;42.694;23.286;2023-02-19T01:03:47;95326.53;;;4.79;69.50
69524;BME280;56723;42.694;23.286;2023-02-19T01:06:16;95322.09;;;4.81;69.55
69524;BME280;56723;42.694;23.286;2023-02-19T01:08:44;95321.38;;;4.79;69.45
69524;BME280;56723;42.694;23.286;2023-02-19T01:11:12;95331.41;;;4.82;69.24
69524;BME280;56723;42.694;23.286;2023-02-19T01:13:39;95317.06;;;4.79;69.62
69524;BME280;56723;42.694;23.286;2023-02-19T01:16:12;95321.16;;;4.82;69.46
69524;BME280;56723;42.694;23.286;2023-02-19T01:18:41;95312.47;;;4.83;69.42
69524;BME280;56723;42.694;23.286;2023-02-19T01:21:19;95316.69;;;4.84;69.43
69524;BME280;56723;42.694;23.286;2023-02-19T01:23:47;95318.78;;;4.90;68.85
69524;BME280;56723;42.694;23.286;2023-02-19T01:26:18;95322.72;;;4.94;68.50
69524;BME280;56723;42.694;23.286;2023-02-19T01:28:45;95332.75;;;4.97;68.23
69524;BME280;56723;42.694;23.286;2023-02-19T01:31:17;95325.63;;;5.01;67.57
69524;BME280;56723;42.694;23.286;2023-02-19T01:33:45;95333.88;;;5.04;68.02
69524;BME280;56723;42.694;23.286;2023-02-19T01:36:13;95331.44;;;5.03;67.74
69524;BME280;56723;42.694;23.286;2023-02-19T01:38:40;95326.41;;;5.01;67.30
69524;BME280;56723;42.694;23.286;2023-02-19T01:41:10;95333.69;;;4.96;67.69
69524;BME280;56723;42.694;23.286;2023-02-19T01:44:04;95347.22;;;4.98;67.92
69524;BME280;56723;42.694;23.286;2023-02-19T01:46:36;95364.50;;;4.96;67.54
69524;BME280;56723;42.694;23.286;2023-02-19T01:51:40;95369.88;;;4.93;67.76
69524;BME280;56723;42.694;23.286;2023-02-19T01:54:11;95356.47;;;4.90;67.63
69524;BME280;56723;42.694;23.286;2023-02-19T01:56:41;95377.00;;;4.90;68.21
69524;BME280;56723;42.694;23.286;2023-02-19T01:59:10;95359.28;;;4.86;68.22
69524;BME280;56723;42.694;23.286;2023-02-19T02:01:38;95339.78;;;4.84;67.56
69524;BME280;56723;42.694;23.286;2023-02-19T02:04:07;95360.31;;;4.84;68.11
69524;BME280;56723;42.694;23.286;2023-02-19T02:06:47;95360.44;;;4.82;68.14
69524;BME280;56723;42.694;23.286;2023-02-19T02:09:17;95365.03;;;4.79;68.49
69524;BME280;56723;42.694;23.286;2023-02-19T02:12:03;95365.03;;;4.79;68.51
69524;BME280;56723;42.694;23.286;2023-02-19T02:14:33;95347.88;;;4.79;68.28
69524;BME280;56723;42.694;23.286;2023-02-19T02:17:30;95370.25;;;4.88;68.25
69524;BME280;56723;42.694;23.286;2023-02-19T02:23:21;95363.13;;;4.92;67.80
69524;BME280;56723;42.694;23.286;2023-02-19T02:31:08;95370.56;;;4.95;67.84
69524;BME280;56723;42.694;23.286;2023-02-19T02:33:43;95354.72;;;4.90;67.75
69524;BME280;56723;42.694;23.286;2023-02-19T02:36:37;95373.97;;;4.96;67.66
69524;BME280;56723;42.694;23.286;2023-02-19T02:39:10;95362.06;;;4.95;67.80
69524;BME280;56723;42.694;23.286;2023-02-19T02:41:44;95371.41;;;4.96;67.81
69524;BME280;56723;42.694;23.286;2023-02-19T02:44:11;95372.22;;;4.96;68.04
69524;BME280;56723;42.694;23.286;2023-02-19T02:46:41;95364.75;;;4.93;67.78
69524;BME280;56723;42.694;23.286;2023-02-19T02:49:17;95372.44;;;4.93;67.83
69524;BME280;56723;42.694;23.286;2023-02-19T02:51:49;95371.41;;;4.96;67.67
69524;BME280;56723;42.694;23.286;2023-02-19T02:54:31;95375.25;;;4.90;68.26
69524;BME280;56723;42.694;23.286;2023-02-19T02:57:20;95373.75;;;4.87;68.12
69524;BME280;56723;42.694;23.286;2023-02-19T02:59:54;95351.50;;;4.77;68.35
69524;BME280;56723;42.694;23.286;2023-02-19T03:02:25;95370.88;;;4.81;68.79
69524;BME280;56723;42.694;23.286;2023-02-19T03:05:26;95372.16;;;4.75;69.03
69524;BME280;56723;42.694;23.286;2023-02-19T03:08:17;95377.66;;;4.71;69.03
69524;BME280;56723;42.694;23.286;2023-02-19T03:10:52;95379.09;;;4.64;70.00
69524;BME280;56723;42.694;23.286;2023-02-19T03:13:26;95381.06;;;4.60;70.27
69524;BME280;56723;42.694;23.286;2023-02-19T03:16:25;95371.72;;;4.59;70.38
69524;BME280;56723;42.694;23.286;2023-02-19T03:19:15;95365.66;;;4.60;70.46
69524;BME280;56723;42.694;23.286;2023-02-19T03:21:56;95373.25;;;4.62;70.28
69524;BME280;56723;42.694;23.286;2023-02-19T03:24:29;95372.56;;;4.60;70.05
69524;BME280;56723;42.694;23.286;2023-02-19T03:27:38;95383.88;;;4.57;70.13
69524;BME280;56723;42.694;23.286;2023-02-19T03:30:16;95388.88;;;4.59;69.65
69524;BME280;56723;42.694;23.286;2023-02-19T03:33:11;95398.44;;;4.57;70.00
69524;BME280;56723;42.694;23.286;2023-02-19T03:36:01;95398.69;;;4.53;69.90
69524;BME280;56723;42.694;23.286;2023-02-19T03:38:42;95404.28;;;4.47;69.75
69524;BME280;56723;42.694;23.286;2023-02-19T03:41:22;95409.09;;;4.41;70.45
69524;BME280;56723;42.694;23.286;2023-02-19T03:44:05;95410.38;;;4.35;70.76
69524;BME280;56723;42.694;23.286;2023-02-19T03:49:15;95411.63;;;4.30;71.23
69524;BME280;56723;42.694;23.286;2023-02-19T03:51:50;95420.53;;;4.26;71.19
69524;BME280;56723;42.694;23.286;2023-02-19T03:54:21;95414.00;;;4.22;71.57
69524;BME280;56723;42.694;23.286;2023-02-19T03:57:01;95421.09;;;4.18;71.74
69524;BME280;56723;42.694;23.286;2023-02-19T03:59:34;95419.91;;;4.11;72.44
69524;BME280;56723;42.694;23.286;2023-02-19T04:02:18;95419.00;;;4.12;72.35
69524;BME280;56723;42.694;23.286;2023-02-19T04:04:53;95423.88;;;4.15;71.81
69524;BME280;56723;42.694;23.286;2023-02-19T04:07:26;95426.59;;;4.25;71.36
69524;BME280;56723;42.694;23.286;2023-02-19T04:09:54;95429.47;;;4.31;70.78
69524;BME280;56723;42.694;23.286;2023-02-19T04:12:22;95423.16;;;4.46;69.79
69524;BME280;56723;42.694;23.286;2023-02-19T04:14:53;95428.28;;;4.69;69.07
69524;BME280;56723;42.694;23.286;2023-02-19T04:17:29;95426.72;;;4.88;67.78
69524;BME280;56723;42.694;23.286;2023-02-19T04:19:58;95421.06;;;5.06;67.01
69524;BME280;56723;42.694;23.286;2023-02-19T04:22:28;95421.56;;;5.32;65.92
69524;BME280;56723;42.694;23.286;2023-02-19T04:24:55;95427.56;;;5.53;64.59
69524;BME280;56723;42.694;23.286;2023-02-19T04:27:22;95427.56;;;5.74;63.40
69524;BME280;56723;42.694;23.286;2023-02-19T04:29:49;95431.09;;;5.94;62.38
69524;BME280;56723;42.694;23.286;2023-02-19T04:32:15;95421.28;;;6.08;61.71
69524;BME280;56723;42.694;23.286;2023-02-19T04:34:42;95422.72;;;6.22;61.11
69524;BME280;56723;42.694;23.286;2023-02-19T04:37:10;95433.59;;;6.35;60.38
69524;BME280;56723;42.694;23.286;2023-02-19T04:39:36;95431.19;;;6.43;60.03
69524;BME280;56723;42.694;23.286;2023-02-19T04:42:04;95432.16;;;6.52;59.73
69524;BME280;56723;42.694;23.286;2023-02-19T04:44:32;95440.50;;;6.65;59.05
69524;BME280;56723;42.694;23.286;2023-02-19T04:47:00;95435.88;;;6.69;58.88
69524;BME280;56723;42.694;23.286;2023-02-19T04:49:27;95445.66;;;6.75;59.03
69524;BME280;56723;42.694;23.286;2023-02-19T04:51:54;95434.16;;;6.79;58.69
69524;BME280;56723;42.694;23.286;2023-02-19T05:59:24;95465.06;;;8.52;50.39
69524;BME280;56723;42.694;23.286;2023-02-19T06:01:53;95476.03;;;8.54;50.57
69524;BME280;56723;42.694;23.286;2023-02-19T06:04:21;95477.38;;;8.58;50.53
69524;BME280;56723;42.694;23.286;2023-02-19T06:06:49;95478.19;;;8.68;50.51
69524;BME280;56723;42.694;23.286;2023-02-19T06:09:16;95486.81;;;8.77;50.30
69524;BME280;56723;42.694;23.286;2023-02-19T06:11:43;95490.34;;;8.86;50.20
69524;BME280;56723;42.694;23.286;2023-02-19T06:14:13;95492.88;;;8.95;49.84
69524;BME280;56723;42.694;23.286;2023-02-19T06:16:40;95501.53;;;9.04;49.83
69524;BME280;56723;42.694;23.286;2023-02-19T06:19:08;95500.00;;;9.11;49.76
69524;BME280;56723;42.694;23.286;2023-02-19T06:21:35;95496.84;;;9.17;49.65
69524;BME280;56723;42.694;23.286;2023-02-19T06:24:06;95505.66;;;9.24;49.21
69524;BME280;56723;42.694;23.286;2023-02-19T06:26:34;95501.78;;;9.28;49.08
69524;BME280;56723;42.694;23.286;2023-02-19T06:29:01;95503.13;;;9.32;49.28
69524;BME280;56723;42.694;23.286;2023-02-19T06:31:28;95498.34;;;9.37;48.96
69524;BME280;56723;42.694;23.286;2023-02-19T06:33:55;95507.81;;;9.47;49.11
69524;BME280;56723;42.694;23.286;2023-02-19T06:36:23;95497.31;;;9.66;48.69
69524;BME280;56723;42.694;23.286;2023-02-19T06:38:50;95497.84;;;9.69;48.24
69524;BME280;56723;42.694;23.286;2023-02-19T06:41:17;95498.75;;;9.78;48.06
69524;BME280;56723;42.694;23.286;2023-02-19T06:43:44;95500.56;;;9.86;48.16
69524;BME280;56723;42.694;23.286;2023-02-19T06:46:12;95481.00;;;9.83;47.49
69524;BME280;56723;42.694;23.286;2023-02-19T06:48:41;95497.47;;;10.00;47.54
69524;BME280;56723;42.694;23.286;2023-02-19T06:51:11;95504.63;;;10.06;47.65
69524;BME280;56723;42.694;23.286;2023-02-19T07:30:34;95494.25;;;9.17;49.47
69524;BME280;56723;42.694;23.286;2023-02-19T07:33:01;95498.56;;;9.26;49.35
69524;BME280;56723;42.694;23.286;2023-02-19T07:35:28;95494.94;;;9.37;49.05
69524;BME280;56723;42.694;23.286;2023-02-19T07:37:55;95494.59;;;9.50;48.59
69524;BME280;56723;42.694;23.286;2023-02-19T07:40:22;95490.84;;;9.62;48.21
69524;BME280;56723;42.694;23.286;2023-02-19T07:42:48;95489.78;;;9.72;48.08
69524;BME280;56723;42.694;23.286;2023-02-19T07:45:15;95489.72;;;9.82;47.50
69524;BME280;56723;42.694;23.286;2023-02-19T07:47:46;95494.38;;;9.96;47.15
69524;BME280;56723;42.694;23.286;2023-02-19T07:50:13;95479.56;;;10.06;47.12
69524;BME280;56723;42.694;23.286;2023-02-19T07:52:43;95478.25;;;10.20;46.64
69524;BME280;56723;42.694;23.286;2023-02-19T07:55:09;95482.06;;;10.34;46.53
69524;BME280;56723;42.694;23.286;2023-02-19T07:57:36;95478.53;;;10.43;45.94
69524;BME280;56723;42.694;23.286;2023-02-19T08:00:03;95478.16;;;10.56;46.14
69524;BME280;56723;42.694;23.286;2023-02-19T08:02:37;95484.31;;;10.63;45.79
69524;BME280;56723;42.694;23.286;2023-02-19T08:05:23;95479.38;;;10.77;45.79
69524;BME280;56723;42.694;23.286;2023-02-19T08:07:50;95471.50;;;10.87;45.39
69524;BME280;56723;42.694;23.286;2023-02-19T08:10:17;95471.34;;;10.97;45.68
69524;BME280;56723;42.694;23.286;2023-02-19T08:13:03;95475.00;;;11.12;44.92
69524;BME280;56723;42.694;23.286;2023-02-19T08:15:45;95466.91;;;11.23;44.59
69524;BME280;56723;42.694;23.286;2023-02-19T08:18:13;95462.06;;;11.28;44.14
69524;BME280;56723;42.694;23.286;2023-02-19T08:20:41;95473.78;;;11.57;43.90
69524;BME280;56723;42.694;23.286;2023-02-19T08:23:09;95467.84;;;11.89;43.30
69524;BME280;56723;42.694;23.286;2023-02-19T08:25:37;95464.94;;;12.16;43.06
69524;BME280;56723;42.694;23.286;2023-02-19T08:28:05;95465.06;;;12.39;41.98
69524;BME280;56723;42.694;23.286;2023-02-19T08:30:33;95468.41;;;12.72;40.97
69524;BME280;56723;42.694;23.286;2023-02-19T08:33:01;95465.66;;;13.04;39.68
69524;BME280;56723;42.694;23.286;2023-02-19T08:35:28;95463.41;;;13.40;39.29
69524;BME280;56723;42.694;23.286;2023-02-19T08:37:58;95463.38;;;13.48;39.20
69524;BME280;56723;42.694;23.286;2023-02-19T08:40:25;95460.31;;;13.68;38.66
69524;BME280;56723;42.694;23.286;2023-02-19T08:42:52;95458.25;;;13.86;38.35
69524;BME280;56723;42.694;23.286;2023-02-19T08:45:19;95455.41;;;14.10;37.97
69524;BME280;56723;42.694;23.286;2023-02-19T08:47:46;95460.06;;;14.38;37.56
69524;BME280;56723;42.694;23.286;2023-02-19T08:50:12;95445.75;;;14.57;37.23
69524;BME280;56723;42.694;23.286;2023-02-19T08:52:39;95447.34;;;14.72;37.33
69524;BME280;56723;42.694;23.286;2023-02-19T08:55:07;95449.44;;;14.77;37.20
69524;BME280;56723;42.694;23.286;2023-02-19T08:57:35;95439.63;;;14.94;36.62
69524;BME280;56723;42.694;23.286;2023-02-19T09:00:04;95438.91;;;15.00;36.48
69524;BME280;56723;42.694;23.286;2023-02-19T09:02:32;95434.09;;;15.03;36.49
69524;BME280;56723;42.694;23.286;2023-02-19T09:04:59;95433.44;;;15.31;36.16
69524;BME280;56723;42.694;23.286;2023-02-19T09:07:26;95423.75;;;15.46;35.91
69524;BME280;56723;42.694;23.286;2023-02-19T09:09:54;95426.22;;;15.69;35.87
69524;BME280;56723;42.694;23.286;2023-02-19T09:12:22;95419.75;;;15.65;36.19
69524;BME280;56723;42.694;23.286;2023-02-19T09:14:51;95418.16;;;15.49;36.34
69524;BME280;56723;42.694;23.286;2023-02-19T09:17:18;95409.03;;;15.59;35.95
69524;BME280;56723;42.694;23.286;2023-02-19T09:19:45;95408.69;;;15.63;36.02
69524;BME280;56723;42.694;23.286;2023-02-19T09:22:15;95413.28;;;15.61;36.28
69524;BME280;56723;42.694;23.286;2023-02-19T09:24:43;95412.13;;;15.48;36.73
69524;BME280;56723;42.694;23.286;2023-02-19T09:27:17;95413.38;;;15.52;37.07
69524;BME280;56723;42.694;23.286;2023-02-19T09:29:45;95405.44;;;15.61;36.82
69524;BME280;56723;42.694;23.286;2023-02-19T09:32:13;95411.44;;;15.76;36.51
69524;BME280;56723;42.694;23.286;2023-02-19T09:34:40;95403.09;;;15.66;37.05
69524;BME280;56723;42.694;23.286;2023-02-19T09:37:07;95401.59;;;15.56;36.83
69524;BME280;56723;42.694;23.286;2023-02-19T09:39:34;95411.69;;;15.45;36.74
69524;BME280;56723;42.694;23.286;2023-02-19T09:42:30;95400.44;;;15.44;36.75
69524;BME280;56723;42.694;23.286;2023-02-19T09:44:59;95404.06;;;15.65;36.62
69524;BME280;56723;42.694;23.286;2023-02-19T09:47:29;95404.81;;;15.80;35.84
69524;BME280;56723;42.694;23.286;2023-02-19T09:50:08;95397.97;;;15.79;35.80
69524;BME280;56723;42.694;23.286;2023-02-19T09:55:12;95395.88;;;16.17;35.09
69524;BME280;56723;42.694;23.286;2023-02-19T09:57:40;95376.81;;;16.23;34.62
69524;BME280;56723;42.694;23.286;2023-02-19T10:00:21;95357.09;;;16.20;34.05
69524;BME280;56723;42.694;23.286;2023-02-19T10:03:19;95358.81;;;16.07;34.02
69524;BME280;56723;42.694;23.286;2023-02-19T10:05:47;95349.72;;;16.03;33.95
69524;BME280;56723;42.694;23.286;2023-02-19T10:08:18;95354.22;;;16.15;33.98
69524;BME280;56723;42.694;23.286;2023-02-19T10:10:46;95346.63;;;16.20;33.93
69524;BME280;56723;42.694;23.286;2023-02-19T10:13:26;95343.69;;;16.37;33.73
69524;BME280;56723;42.694;23.286;2023-02-19T10:15:57;95337.75;;;16.49;33.30
69524;BME280;56723;42.694;23.286;2023-02-19T10:18:27;95327.06;;;16.44;33.50
69524;BME280;56723;42.694;23.286;2023-02-19T10:20:56;95323.88;;;16.49;33.65
69524;BME280;56723;42.694;23.286;2023-02-19T10:23:24;95319.69;;;16.61;33.13
69524;BME280;56723;42.694;23.286;2023-02-19T10:25:54;95308.28;;;16.69;32.97
69524;BME280;56723;42.694;23.286;2023-02-19T10:28:27;95303.72;;;16.84;32.93
69524;BME280;56723;42.694;23.286;2023-02-19T10:30:57;95289.66;;;16.50;32.95
69524;BME280;56723;42.694;23.286;2023-02-19T10:33:25;95299.91;;;16.52;33.03
69524;BME280;56723;42.694;23.286;2023-02-19T10:36:01;95299.72;;;16.47;32.96
69524;BME280;56723;42.694;23.286;2023-02-19T10:38:32;95290.47;;;16.51;33.30
69524;BME280;56723;42.694;23.286;2023-02-19T10:41:26;95282.22;;;16.54;33.05
69524;BME280;56723;42.694;23.286;2023-02-19T10:46:24;95256.66;;;16.49;32.78
69524;BME280;56723;42.694;23.286;2023-02-19T10:49:01;95262.91;;;16.48;33.00
69524;BME280;56723;42.694;23.286;2023-02-19T10:51:34;95258.16;;;16.65;32.51
69524;BME280;56723;42.694;23.286;2023-02-19T10:54:26;95244.50;;;16.76;32.93
69524;BME280;56723;42.694;23.286;2023-02-19T10:57:15;95254.41;;;16.87;32.19
69524;BME280;56723;42.694;23.286;2023-02-19T10:59:54;95240.09;;;16.96;32.14
69524;BME280;56723;42.694;23.286;2023-02-19T11:02:25;95234.09;;;17.16;31.76
69524;BME280;56723;42.694;23.286;2023-02-19T11:07:35;95218.38;;;17.29;32.24
69524;BME280;56723;42.694;23.286;2023-02-19T11:10:04;95211.75;;;17.40;31.40
69524;BME280;56723;42.694;23.286;2023-02-19T11:12:33;95211.75;;;17.40;31.69
69524;BME280;56723;42.694;23.286;2023-02-19T11:15:22;95209.53;;;17.43;30.84
69524;BME280;56723;42.694;23.286;2023-02-19T11:20:22;95192.56;;;17.46;30.71
69524;BME280;56723;42.694;23.286;2023-02-19T11:22:50;95187.13;;;17.47;30.59
69524;BME280;56723;42.694;23.286;2023-02-19T11:25:18;95184.47;;;17.87;30.73
69524;BME280;56723;42.694;23.286;2023-02-19T11:27:56;95187.38;;;18.23;29.65
69524;BME280;56723;42.694;23.286;2023-02-19T11:30:31;95176.38;;;18.46;30.04
69524;BME280;56723;42.694;23.286;2023-02-19T11:35:52;95163.53;;;19.01;28.56
69524;BME280;56723;42.694;23.286;2023-02-19T11:38:20;95151.97;;;19.09;28.18
69524;BME280;56723;42.694;23.286;2023-02-19T11:40:53;95141.09;;;19.05;28.14
69524;BME280;56723;42.694;23.286;2023-02-19T11:54:23;95140.06;;;18.81;28.07
69524;BME280;56723;42.694;23.286;2023-02-19T11:57:08;95142.44;;;18.89;28.08
69524;BME280;56723;42.694;23.286;2023-02-19T11:59:47;95131.06;;;18.95;27.90
69524;BME280;56723;42.694;23.286;2023-02-19T12:19:19;95090.28;;;19.36;26.90
69524;BME280;56723;42.694;23.286;2023-02-19T12:22:08;95085.88;;;19.30;26.98
69524;BME280;56723;42.694;23.286;2023-02-19T12:35:42;95064.66;;;18.57;27.32
69524;BME280;56723;42.694;23.286;2023-02-19T12:38:20;95043.91;;;18.55;27.20
69524;BME280;56723;42.694;23.286;2023-02-19T12:41:37;95045.97;;;18.78;27.16
69524;BME280;56723;42.694;23.286;2023-02-19T12:44:17;95042.66;;;18.89;27.15
69524;BME280;56723;42.694;23.286;2023-02-19T12:46:50;95040.06;;;19.08;26.82
69524;BME280;56723;42.694;23.286;2023-02-19T12:49:39;95031.19;;;19.27;26.50
69524;BME280;56723;42.694;23.286;2023-02-19T12:52:18;95027.22;;;19.36;26.43
69524;BME280;56723;42.694;23.286;2023-02-19T12:54:53;95021.09;;;19.42;26.25
69524;BME280;56723;42.694;23.286;2023-02-19T12:57:26;95016.72;;;19.36;26.33
69524;BME280;56723;42.694;23.286;2023-02-19T13:00:34;95013.66;;;19.21;27.24
69524;BME280;56723;42.694;23.286;2023-02-19T13:03:15;95004.59;;;19.17;26.68
69524;BME280;56723;42.694;23.286;2023-02-19T13:08:39;94999.13;;;19.36;26.38
69524;BME280;56723;42.694;23.286;2023-02-19T13:12:16;94993.72;;;19.68;26.12
69524;BME280;56723;42.694;23.286;2023-02-19T13:14:44;94988.75;;;19.42;26.18
69524;BME280;56723;42.694;23.286;2023-02-19T13:17:40;94980.22;;;19.46;26.18
69524;BME280;56723;42.694;23.286;2023-02-19T13:22:54;94990.03;;;19.57;25.78
69524;BME280;56723;42.694;23.286;2023-02-19T13:36:53;94945.78;;;19.84;25.77
69524;BME280;56723;42.694;23.286;2023-02-19T13:39:21;94948.34;;;20.02;25.66
69524;BME280;56723;42.694;23.286;2023-02-19T13:41:50;94948.22;;;19.97;25.73
69524;BME280;56723;42.694;23.286;2023-02-19T13:44:27;94940.97;;;19.81;25.78
69524;BME280;56723;42.694;23.286;2023-02-19T13:46:55;94943.91;;;20.15;25.45
69524;BME280;56723;42.694;23.286;2023-02-19T13:58:38;94941.06;;;19.26;26.52
69524;BME280;56723;42.694;23.286;2023-02-19T14:01:17;94940.53;;;18.99;26.93
69524;BME280;56723;42.694;23.286;2023-02-19T14:03:51;94935.06;;;18.58;27.40
69524;BME280;56723;42.694;23.286;2023-02-19T14:06:19;94926.09;;;18.47;27.42
69524;BME280;56723;42.694;23.286;2023-02-19T14:16:54;94927.72;;;18.23;27.87
69524;BME280;56723;42.694;23.286;2023-02-19T14:28:05;94895.44;;;20.22;26.55
69524;BME280;56723;42.694;23.286;2023-02-19T14:33:27;94889.41;;;21.32;24.77
69524;BME280;56723;42.694;23.286;2023-02-19T14:36:13;94895.50;;;21.09;24.90
69524;BME280;56723;42.694;23.286;2023-02-19T14:38:55;94906.09;;;20.74;25.68
69524;BME280;56723;42.694;23.286;2023-02-19T14:41:24;94897.53;;;20.55;25.63
69524;BME280;56723;42.694;23.286;2023-02-19T14:43:55;94893.81;;;20.33;25.75
69524;BME280;56723;42.694;23.286;2023-02-19T14:46:30;94877.22;;;20.09;26.02
69524;BME280;56723;42.694;23.286;2023-02-19T14:49:18;94884.34;;;20.20;26.53
69524;BME280;56723;42.694;23.286;2023-02-19T14:51:50;94880.31;;;20.29;26.45
69524;BME280;56723;42.694;23.286;2023-02-19T14:54:43;94882.66;;;20.37;26.29
69524;BME280;56723;42.694;23.286;2023-02-19T14:57:20;94866.81;;;20.61;25.61
69524;BME280;56723;42.694;23.286;2023-02-19T14:59:53;94875.53;;;20.61;25.14
69524;BME280;56723;42.694;23.286;2023-02-19T15:02:21;94882.66;;;20.37;26.01
69524;BME280;56723;42.694;23.286;2023-02-19T15:04:49;94868.16;;;19.82;26.87
69524;BME280;56723;42.694;23.286;2023-02-19T15:07:35;94875.66;;;19.66;27.13
69524;BME280;56723;42.694;23.286;2023-02-19T15:10:03;94875.28;;;19.33;27.31
69524;BME280;56723;42.694;23.286;2023-02-19T15:12:43;94877.13;;;19.14;27.70
69524;BME280;56723;42.694;23.286;2023-02-19T15:15:19;94878.97;;;18.95;27.86
69524;BME280;56723;42.694;23.286;2023-02-19T15:17:49;94880.47;;;18.73;28.79
69524;BME280;56723;42.694;23.286;2023-02-19T15:20:22;94872.22;;;18.45;29.63
69524;BME280;56723;42.694;23.286;2023-02-19T15:22:51;94886.13;;;18.27;30.20
69524;BME280;56723;42.694;23.286;2023-02-19T15:25:20;94883.84;;;18.12;30.84
69524;BME280;56723;42.694;23.286;2023-02-19T15:27:48;94874.09;;;17.94;31.12
69524;BME280;56723;42.694;23.286;2023-02-19T15:30:22;94875.44;;;17.79;31.73
69524;BME280;56723;42.694;23.286;2023-02-19T15:32:52;94883.19;;;17.60;31.69
69524;BME280;56723;42.694;23.286;2023-02-19T15:35:20;94881.81;;;17.51;32.04
69524;BME280;56723;42.694;23.286;2023-02-19T15:37:49;94893.59;;;17.36;32.65
69524;BME280;56723;42.694;23.286;2023-02-19T15:40:18;94893.47;;;17.24;33.04
69524;BME280;56723;42.694;23.286;2023-02-19T15:42:46;94905.00;;;17.10;32.49
69524;BME280;56723;42.694;23.286;2023-02-19T15:45:20;94916.72;;;17.01;33.08
69524;BME280;56723;42.694;23.286;2023-02-19T15:48:12;94912.72;;;16.91;33.11
69524;BME280;56723;42.694;23.286;2023-02-19T15:50:40;94914.38;;;16.79;33.24
69524;BME280;56723;42.694;23.286;2023-02-19T15:53:18;94914.19;;;16.61;33.64
69524;BME280;56723;42.694;23.286;2023-02-19T15:58:30;94929.91;;;16.35;34.06
69524;BME280;56723;42.694;23.286;2023-02-19T16:01:01;94932.34;;;16.30;34.83
69524;BME280;56723;42.694;23.286;2023-02-19T16:03:29;94939.78;;;16.19;34.55
69524;BME280;56723;42.694;23.286;2023-02-19T16:06:02;94935.97;;;16.09;34.66
69524;BME280;56723;42.694;23.286;2023-02-19T16:08:36;94940.38;;;15.95;34.77
69524;BME280;56723;42.694;23.286;2023-02-19T16:13:49;94944.16;;;15.73;35.48
69524;BME280;56723;42.694;23.286;2023-02-19T16:16:29;94946.56;;;15.68;35.53
69524;BME280;56723;42.694;23.286;2023-02-19T16:18:57;94945.94;;;15.59;35.66
69524;BME280;56723;42.694;23.286;2023-02-19T16:21:25;94948.91;;;15.49;35.78
69524;BME280;56723;42.694;23.286;2023-02-19T16:24:01;94949.28;;;15.40;35.93
69524;BME280;56723;42.694;23.286;2023-02-19T16:26:37;94937.97;;;15.26;36.12
69524;BME280;56723;42.694;23.286;2023-02-19T16:29:19;94947.78;;;15.17;36.55
69524;BME280;56723;42.694;23.286;2023-02-19T16:31:52;94952.97;;;15.11;37.09
69524;BME280;56723;42.694;23.286;2023-02-19T16:34:39;94967.22;;;15.02;36.36
69524;BME280;56723;42.694;23.286;2023-02-19T16:37:32;94974.94;;;14.88;36.26
69524;BME280;56723;42.694;23.286;2023-02-19T16:45:32;94971.56;;;14.60;36.53
69524;BME280;56723;42.694;23.286;2023-02-19T16:47:59;94976.91;;;14.52;36.51
69524;BME280;56723;42.694;23.286;2023-02-19T16:50:26;94984.72;;;14.45;36.59
69524;BME280;56723;42.694;23.286;2023-02-19T16:52:55;94991.63;;;14.38;37.27
69524;BME280;56723;42.694;23.286;2023-02-19T16:55:22;94989.97;;;14.31;36.93
69524;BME280;56723;42.694;23.286;2023-02-19T16:57:49;94992.72;;;14.23;36.91
69524;BME280;56723;42.694;23.286;2023-02-19T17:00:22;94993.72;;;14.21;36.77
69524;BME280;56723;42.694;23.286;2023-02-19T17:02:55;94996.69;;;14.18;36.79
69524;BME280;56723;42.694;23.286;2023-02-19T17:05:24;95000.28;;;14.17;36.69
69524;BME280;56723;42.694;23.286;2023-02-19T17:07:52;95003.03;;;14.09;36.97
69524;BME280;56723;42.694;23.286;2023-02-19T17:10:23;95007.00;;;14.05;36.94